Plumtree, Zimbabwe

2:08 PM CAT on November 27, 2014 (GMT +0200)
Bulawayo | Change Station
CLOSE
Current Station
Airport
Location: Bulawayo Woodvale,
Elevation: 4350 ft
Nearby Weather Stations

Elev 4350 ft 20.02 °S, 28.62 °E | Updated 8 minutes ago

Clear
Clear
90 °F
Feels Like 90 °F
N
7
Wind Variable Wind from Variable

Today
High -- | Low -- °F
--% Chance of Precip.
Yesterday
High -- | Low -- °F
Precip. -- in
5:19 AM 6:33 PM
Waxing Crescent, 29% visible
Pressure 29.98 in
Visibility -9999.0 miles
Clouds
Dew Point 37 °F
Humidity 16%
Rainfall 0.00 in
Snow Depth Not available.
UV Not available.
Pollen Not available.
Air Quality Not available.
Flu Activity Not available.
METAR FVBU 271200Z VRB06KT CAVOK 32/03 Q1015 NOSIG

More Conditions Fewer Conditions

Pressure 29.98 in
Visibility -9999.0 miles
Clouds
Dew Point 37 °F
Humidity 16%
Rainfall 0.00 in
Snow Depth Not available.
UV Not available.
Pollen Not available.
Air Quality Not available.
Flu Activity Not available.
METAR FVBU 271200Z VRB06KT CAVOK 32/03 Q1015 NOSIG

More Conditions Fewer Conditions

10-Day Weather Forecast

Almanac

Astronomy

Nov. 27, 2014 Rise Set
Actual Time
Civil Twilight
Nautical Twilight
Astronomical Twilight
Moon
Length of Visible Light
Length of Day
Tomorrow will be .
, % of the Moon is Illuminated

Today's Extremes

Country Highs Country Lows

Community

WunderPhotos

Upload Photos

1,773,975 photos uploaded!

WunderBlogs® & News

Nearby

Air Quality

  Air Quality AQ Index Pollutant
Not available.

Snow Depth

Station Depth Elevation

Earthquake Activity

City Distance Mag. Time & Date
Minimum magnitude displayed is 2.5.

Coastal Water Temperatures

Place Temperature

Nearby Weather Stations